Time;durP1;ratioP1;P1;durP2;ratioP2;P2;SDS_P1;SDS_P2;PMS_P1;PMS_P2;Temp;Humidity;BMP_temperature;BMP_pressure;BME280_temperature;BME280_humidity;BME280_pressure;Samples;Min_cycle;Max_cycle;Signal;HPM_P1;HPM_P2
2022/05/27 00:01:30;;;;;;;6.07;2.67;;;;;;;17.68;66.28;98984.81;5033173;28;20071;-83
2022/05/27 00:03:57;;;;;;;6.35;2.60;;;;;;;17.61;66.51;98973.56;5035980;28;20029;-83
2022/05/27 00:06:22;;;;;;;8.13;2.70;;;;;;;17.73;65.94;98986.63;5048994;28;20030;-83
2022/05/27 00:08:48;;;;;;;7.90;2.83;;;;;;;17.60;66.25;98980.06;5036297;28;20037;-83
2022/05/27 00:11:14;;;;;;;11.80;2.95;;;;;;;17.68;66.25;98982.09;5035985;28;20052;-83
2022/05/27 00:13:40;;;;;;;5.45;2.58;;;;;;;17.65;66.71;98971.06;5036755;28;20029;-82
2022/05/27 00:16:05;;;;;;;5.13;3.20;;;;;;;17.68;66.45;98971.31;5028123;28;20025;-84
2022/05/27 00:18:30;;;;;;;5.15;2.80;;;;;;;17.69;65.65;98966.72;5035345;28;20029;-83
2022/05/27 00:20:57;;;;;;;4.90;2.60;;;;;;;17.67;66.36;98964.28;5035658;28;20132;-84
2022/05/27 00:23:23;;;;;;;6.20;2.38;;;;;;;17.64;66.36;98962.19;5033192;28;20032;-83
2022/05/27 00:25:48;;;;;;;5.90;2.90;;;;;;;17.66;66.35;98962.69;5030924;28;20104;-80
2022/05/27 00:28:14;;;;;;;4.88;2.30;;;;;;;17.63;65.95;98968.66;5030109;28;20029;-80
2022/05/27 00:30:40;;;;;;;6.47;2.55;;;;;;;17.59;66.48;98954.16;5032264;28;20029;-80
2022/05/27 00:33:05;;;;;;;5.72;2.55;;;;;;;17.59;66.29;98954.16;5030688;28;20037;-80
2022/05/27 00:35:31;;;;;;;9.63;2.47;;;;;;;17.57;67.20;98955.53;5031213;28;20278;-80
2022/05/27 00:37:57;;;;;;;5.22;2.60;;;;;;;17.51;66.76;98956.69;5032034;28;20044;-80
2022/05/27 00:40:24;;;;;;;8.70;2.55;;;;;;;17.52;66.70;98956.41;5024610;28;20618;-81
2022/05/27 00:42:49;;;;;;;5.20;2.55;;;;;;;17.55;66.89;98955.03;5033549;28;20040;-81
2022/05/27 00:45:21;;;;;;;6.90;2.45;;;;;;;17.53;67.19;98960.72;5028245;28;20570;-77
2022/05/27 00:47:50;;;;;;;6.20;2.60;;;;;;;17.57;66.48;98953.63;5031188;28;20040;-78
2022/05/27 00:50:19;;;;;;;9.20;3.40;;;;;;;17.57;67.29;98960.94;5030026;28;20037;-78
2022/05/27 00:52:46;;;;;;;6.55;3.20;;;;;;;17.48;67.50;98947.25;5026592;28;20041;-78
2022/05/27 00:55:17;;;;;;;8.13;3.20;;;;;;;17.41;68.00;98943.31;5029429;28;20044;-78
2022/05/27 00:57:47;;;;;;;3.97;2.67;;;;;;;17.41;68.21;98946.03;5030066;28;20053;-78
2022/05/27 01:00:17;;;;;;;6.05;3.35;;;;;;;17.41;68.22;98951.41;5028204;28;20033;-79
2022/05/27 01:02:42;;;;;;;6.25;2.80;;;;;;;17.37;68.76;98947.66;5030607;28;20099;-79
2022/05/27 01:26:12;;;;;;;6.15;2.92;;;;;;;17.28;69.21;98935.94;5025750;28;20040;-85
2022/05/27 01:39:46;;;;;;;4.05;2.10;;;;;;;17.16;69.39;98931.75;4965009;28;20045;-82
2022/05/27 01:43:04;;;;;;;5.53;3.42;;;;;;;17.20;69.24;98935.47;4961421;28;20141;-77
2022/05/27 01:46:02;;;;;;;7.28;2.78;;;;;;;17.20;69.24;98930.09;5018494;28;20077;-77
2022/05/27 01:48:35;;;;;;;6.18;3.40;;;;;;;17.17;69.46;98930.66;5029722;28;20476;-79
2022/05/27 01:51:13;;;;;;;3.60;2.40;;;;;;;17.12;69.69;98927.22;5028223;28;20021;-80
2022/05/27 01:53:59;;;;;;;4.80;2.35;;;;;;;17.13;70.07;98928.81;5045176;28;20029;-84
2022/05/27 01:56:30;;;;;;;7.43;3.22;;;;;;;17.10;70.45;98929.41;5027789;28;20048;-77
2022/05/27 01:59:05;;;;;;;3.53;2.70;;;;;;;17.05;71.18;98937.56;5026369;28;20049;-77
2022/05/27 02:01:36;;;;;;;13.73;3.63;;;;;;;16.99;71.17;98928.72;5046154;28;20140;-79
2022/05/27 02:04:20;;;;;;;9.98;3.53;;;;;;;16.98;71.14;98929.00;5029635;28;20041;-81
2022/05/27 02:06:58;;;;;;;8.23;3.10;;;;;;;16.97;71.40;98930.91;5033775;28;20148;-81
2022/05/27 02:09:30;;;;;;;5.88;3.17;;;;;;;16.96;71.21;98923.91;5031615;28;20033;-82
2022/05/27 02:12:02;;;;;;;8.05;3.05;;;;;;;16.98;71.78;98920.91;5030357;28;20053;-82
2022/05/27 02:14:52;;;;;;;3.40;2.85;;;;;;;16.93;72.04;98926.38;5030744;28;20128;-81
2022/05/27 02:17:23;;;;;;;5.82;3.20;;;;;;;16.88;72.45;98916.47;5032108;28;20075;-81
2022/05/27 02:19:55;;;;;;;5.40;3.17;;;;;;;16.91;72.12;98923.16;4996743;28;20380;-82
2022/05/27 02:22:30;;;;;;;8.48;3.20;;;;;;;16.86;72.57;98909.75;5032099;28;20024;-83
2022/05/27 02:25:08;;;;;;;5.13;3.03;;;;;;;16.89;73.03;98917.25;5033482;28;20032;-83
2022/05/27 02:27:51;;;;;;;6.35;3.15;;;;;;;16.83;72.84;98919.22;5032688;28;20033;-81
2022/05/27 02:30:18;;;;;;;9.43;3.65;;;;;;;16.78;73.63;98913.88;5029726;28;20115;-80
2022/05/27 02:35:46;;;;;;;7.28;3.15;;;;;;;16.76;74.14;98909.84;5022823;28;20299;-81
2022/05/27 02:38:12;;;;;;;5.35;3.63;;;;;;;16.73;74.06;98913.91;5030270;28;20047;-81
2022/05/27 02:40:59;;;;;;;13.00;4.35;;;;;;;16.72;74.64;98908.81;5010583;28;20033;-78
2022/05/27 02:43:50;;;;;;;4.05;3.15;;;;;;;16.66;74.90;98899.19;5026236;28;20080;-78
2022/05/27 02:46:32;;;;;;;7.63;3.10;;;;;;;16.62;75.03;98901.63;5028935;28;20021;-80
2022/05/27 02:49:15;;;;;;;8.55;3.33;;;;;;;16.61;74.98;98918.09;5033371;28;20043;-80
2022/05/27 02:51:54;;;;;;;5.63;3.28;;;;;;;16.61;75.34;98910.00;5028001;28;20076;-78
2022/05/27 02:54:31;;;;;;;3.83;2.90;;;;;;;16.63;74.94;98911.34;5032050;28;20421;-83
2022/05/27 02:57:21;;;;;;;5.28;3.03;;;;;;;16.59;75.52;98912.19;5031642;28;20165;-79
2022/05/27 02:59:48;;;;;;;4.82;2.70;;;;;;;16.55;75.27;98903.09;5031797;28;20031;-80
2022/05/27 03:02:16;;;;;;;3.30;2.75;;;;;;;16.49;75.74;98903.09;5026972;28;20804;-79
2022/05/27 03:04:46;;;;;;;6.25;2.58;;;;;;;16.52;75.51;98914.41;5031077;28;20025;-79
2022/05/27 03:07:17;;;;;;;4.57;2.78;;;;;;;16.43;75.61;98908.81;5034140;28;20026;-81
2022/05/27 03:09:54;;;;;;;3.85;2.38;;;;;;;16.39;75.90;98905.09;5027862;28;20029;-78
2022/05/27 03:12:54;;;;;;;7.20;2.78;;;;;;;16.36;75.46;98909.16;5023332;28;20057;-80
2022/05/27 03:15:25;;;;;;;3.00;2.70;;;;;;;16.34;75.66;98897.06;5047809;28;20056;-79
2022/05/27 03:18:16;;;;;;;7.03;3.05;;;;;;;16.38;75.57;98906.19;5030437;28;20024;-79
2022/05/27 03:20:49;;;;;;;4.57;2.70;;;;;;;16.31;75.36;98884.97;5027218;28;20033;-77
2022/05/27 03:23:35;;;;;;;3.97;2.00;;;;;;;16.30;75.49;98896.81;5031790;28;20135;-80
2022/05/27 03:26:08;;;;;;;3.50;2.85;;;;;;;16.26;75.26;98898.47;5032876;28;20024;-79
2022/05/27 03:28:49;;;;;;;3.40;2.40;;;;;;;16.28;75.46;98898.19;5031085;28;20048;-80
2022/05/27 03:31:32;;;;;;;5.38;2.20;;;;;;;16.28;75.21;98899.00;5031485;28;20478;-77
2022/05/27 03:34:22;;;;;;;2.00;1.90;;;;;;;16.25;75.69;98904.94;5029255;28;20029;-80
2022/05/27 03:36:57;;;;;;;6.22;1.90;;;;;;;16.21;75.42;98890.44;5029391;28;20120;-79
2022/05/27 03:39:32;;;;;;;2.33;2.13;;;;;;;16.22;75.09;98896.63;5031902;28;20155;-78
2022/05/27 03:42:05;;;;;;;3.28;2.05;;;;;;;16.15;75.22;98894.28;5036178;28;20033;-79
2022/05/27 03:44:30;;;;;;;1.98;1.88;;;;;;;16.14;75.72;98891.88;5030037;28;20048;-77
2022/05/27 03:46:58;;;;;;;2.38;1.85;;;;;;;16.15;75.58;98904.25;5025614;28;20026;-79
2022/05/27 03:49:23;;;;;;;2.47;2.00;;;;;;;16.18;75.73;98909.06;5025072;28;20516;-78
2022/05/27 03:52:10;;;;;;;1.85;1.75;;;;;;;16.16;75.37;98914.72;5027273;28;20042;-78
2022/05/27 03:54:35;;;;;;;2.47;2.08;;;;;;;16.12;75.43;98912.91;5026064;28;20603;-78
2022/05/27 03:57:01;;;;;;;1.77;1.60;;;;;;;16.11;75.82;98901.31;5029973;28;20052;-78
2022/05/27 03:59:26;;;;;;;1.77;1.67;;;;;;;16.06;75.86;98898.66;5026415;28;20453;-81
2022/05/27 04:01:55;;;;;;;3.17;1.75;;;;;;;16.08;76.24;98893.78;5030931;28;20116;-81
2022/05/27 04:04:24;;;;;;;2.03;1.77;;;;;;;16.12;75.90;98899.44;5031137;28;20364;-79
2022/05/27 04:06:49;;;;;;;2.05;1.50;;;;;;;16.06;76.29;98905.94;5030456;28;20044;-77
2022/05/27 04:09:17;;;;;;;2.63;1.95;;;;;;;16.09;76.57;98908.88;5032757;28;20029;-79
2022/05/27 04:11:43;;;;;;;3.33;1.65;;;;;;;16.09;76.74;98908.06;5031563;28;20025;-78
2022/05/27 04:14:09;;;;;;;1.45;1.35;;;;;;;16.03;76.77;98909.22;5033228;28;20429;-78
2022/05/27 04:16:35;;;;;;;1.65;1.55;;;;;;;16.01;77.10;98917.53;5034083;28;20033;-79
2022/05/27 04:19:00;;;;;;;1.80;1.52;;;;;;;15.97;77.45;98908.44;5016776;28;20544;-81
2022/05/27 04:21:45;;;;;;;1.98;1.88;;;;;;;15.96;76.91;98909.53;5033788;28;20600;-81
2022/05/27 04:24:10;;;;;;;2.45;1.70;;;;;;;15.96;77.32;98920.28;5033379;28;20033;-82
2022/05/27 04:26:36;;;;;;;2.70;1.90;;;;;;;15.94;77.16;98919.78;5032247;28;20040;-83
2022/05/27 04:29:02;;;;;;;1.83;1.63;;;;;;;15.96;77.39;98919.47;5050331;28;20041;-80
2022/05/27 04:31:27;;;;;;;1.67;1.40;;;;;;;15.99;77.11;98927.00;5034135;28;20037;-79
2022/05/27 04:33:56;;;;;;;2.25;1.50;;;;;;;15.93;76.93;98902.00;5036426;28;20083;-82
2022/05/27 04:36:21;;;;;;;2.25;1.63;;;;;;;15.93;77.23;98912.78;5015737;28;20048;-82
2022/05/27 04:38:47;;;;;;;1.77;1.67;;;;;;;16.03;77.17;98931.53;5013910;28;20029;-79
2022/05/27 04:41:12;;;;;;;2.47;1.60;;;;;;;16.02;77.11;98927.25;5029919;28;20036;-78
2022/05/27 04:43:38;;;;;;;2.78;1.67;;;;;;;16.06;76.84;98924.78;5028508;28;20086;-78
2022/05/27 04:46:04;;;;;;;1.73;1.60;;;;;;;16.04;77.29;98927.75;5031767;28;20109;-79
2022/05/27 04:48:29;;;;;;;1.77;1.67;;;;;;;16.03;76.88;98936.91;5030203;28;20151;-80
2022/05/27 04:50:55;;;;;;;3.40;1.60;;;;;;;15.98;77.08;98934.28;5024980;28;20526;-79
2022/05/27 04:53:20;;;;;;;1.83;1.50;;;;;;;15.99;77.29;98943.94;5030880;28;20029;-80
2022/05/27 04:55:46;;;;;;;3.33;1.88;;;;;;;15.99;77.42;98953.94;5044403;28;20034;-80
2022/05/27 04:58:12;;;;;;;2.47;1.80;;;;;;;15.95;77.25;98947.47;5033274;28;20025;-80
2022/05/27 05:00:43;;;;;;;3.17;1.88;;;;;;;15.94;77.27;98968.22;5016230;28;20044;-83
2022/05/27 05:03:10;;;;;;;2.05;1.52;;;;;;;15.88;76.79;98958.56;5031671;28;20021;-83
2022/05/27 05:05:44;;;;;;;2.78;1.33;;;;;;;15.81;76.82;98962.66;5026971;28;20444;-82
2022/05/27 05:08:36;;;;;;;2.42;1.33;;;;;;;15.84;76.51;98965.59;5030105;28;20112;-81
2022/05/27 05:11:04;;;;;;;1.60;1.50;;;;;;;15.79;75.52;98967.53;5033432;28;20160;-82
2022/05/27 05:13:31;;;;;;;1.55;1.20;;;;;;;15.76;75.40;98974.25;5028577;28;20025;-81
2022/05/27 05:15:57;;;;;;;2.38;1.73;;;;;;;15.71;75.17;98961.66;5029647;28;20030;-80
2022/05/27 05:18:23;;;;;;;3.75;1.50;;;;;;;15.67;75.22;98965.16;5028525;28;20052;-80
2022/05/27 05:20:49;;;;;;;2.20;1.42;;;;;;;15.62;74.84;98962.50;5030108;28;20033;-80
2022/05/27 05:23:14;;;;;;;3.60;1.67;;;;;;;15.65;74.96;98973.53;5028643;28;20033;-80
2022/05/27 05:25:39;;;;;;;5.53;1.30;;;;;;;15.62;75.21;98965.19;5030127;28;20034;-80
2022/05/27 05:28:59;;;;;;;1.73;1.27;;;;;;;15.66;74.90;98968.97;5029067;28;20029;-85
2022/05/27 05:31:45;;;;;;;1.25;1.20;;;;;;;15.64;75.34;98969.22;4970784;28;20506;-80
2022/05/27 05:34:10;;;;;;;3.58;1.58;;;;;;;15.66;75.27;98979.72;5030741;28;20032;-80
2022/05/27 05:36:35;;;;;;;1.67;1.33;;;;;;;15.66;74.86;98980.50;5031275;28;20029;-80
2022/05/27 05:39:36;;;;;;;1.95;1.70;;;;;;;15.66;75.41;98995.88;5026320;28;20036;-84
2022/05/27 05:42:46;;;;;;;5.25;2.03;;;;;;;15.64;74.93;98993.44;5025573;28;20124;-83
2022/05/27 05:46:40;;;;;;;;;;;;;;;;;;;;;
2022/05/27 05:49:58;;;;;;;3.45;1.90;;;;;;;15.49;75.17;98984.63;5028819;28;20034;-82
2022/05/27 05:52:44;;;;;;;2.85;1.65;;;;;;;15.57;74.76;99001.00;4954310;28;20109;-84
2022/05/27 05:55:12;;;;;;;5.68;1.85;;;;;;;15.55;75.28;98999.69;5027755;28;20498;-81
2022/05/27 05:58:09;;;;;;;2.05;1.58;;;;;;;15.58;74.81;98989.16;5024285;28;20696;-82
2022/05/27 06:00:39;;;;;;;1.77;1.50;;;;;;;15.67;74.60;99000.16;5017036;28;20576;-81
2022/05/27 06:03:05;;;;;;;2.00;1.50;;;;;;;15.68;74.61;99002.56;5011458;28;20072;-81
2022/05/27 06:05:30;;;;;;;1.83;1.50;;;;;;;15.67;74.60;98992.88;5031241;28;20448;-81
2022/05/27 06:07:56;;;;;;;3.67;1.65;;;;;;;15.79;74.17;99003.31;5032136;28;20037;-81
2022/05/27 06:10:22;;;;;;;4.38;1.90;;;;;;;15.80;74.60;99001.41;5028254;28;20073;-80
2022/05/27 06:12:47;;;;;;;1.60;1.33;;;;;;;15.80;75.32;98996.84;5029942;28;20041;-79
2022/05/27 06:15:14;;;;;;;2.30;2.10;;;;;;;15.76;75.22;98995.78;5028144;28;20029;-81
2022/05/27 06:17:39;;;;;;;2.17;1.98;;;;;;;15.80;74.77;98996.84;5029476;28;20032;-80
2022/05/27 06:20:06;;;;;;;2.22;1.83;;;;;;;15.79;75.28;99008.72;5027753;28;20033;-78
2022/05/27 06:22:32;;;;;;;3.50;1.80;;;;;;;15.84;74.66;99015.91;5029247;28;20037;-82
2022/05/27 06:24:59;;;;;;;3.55;1.63;;;;;;;15.85;74.39;99020.25;5027523;28;20041;-82
2022/05/27 06:27:25;;;;;;;3.53;1.90;;;;;;;15.87;74.56;99023.44;5027118;28;20021;-81
2022/05/27 06:35:18;;;;;;;3.00;2.20;;;;;;;15.84;74.85;99024.00;5030476;28;20060;-81
2022/05/27 06:37:44;;;;;;;3.13;2.00;;;;;;;15.88;74.67;99025.06;5028583;28;20034;-78
2022/05/27 06:40:10;;;;;;;4.45;2.20;;;;;;;15.87;74.42;99023.44;5028185;28;20088;-79
2022/05/27 06:42:37;;;;;;;4.03;2.10;;;;;;;15.80;74.38;99023.75;5031019;28;20036;-83
2022/05/27 06:45:03;;;;;;;3.75;2.10;;;;;;;15.84;74.44;99035.56;5009774;28;20033;-79
2022/05/27 06:47:29;;;;;;;3.13;2.33;;;;;;;15.80;74.31;99026.44;5027266;28;20026;-78
2022/05/27 06:49:54;;;;;;;5.32;1.88;;;;;;;15.80;74.69;99029.16;5028124;28;20082;-78
2022/05/27 06:52:20;;;;;;;2.30;2.08;;;;;;;15.79;74.81;99029.44;5027557;28;20053;-80
2022/05/27 06:54:46;;;;;;;4.63;2.08;;;;;;;15.76;75.21;99022.72;5025871;28;20041;-78
2022/05/27 06:57:33;;;;;;;4.45;2.10;;;;;;;15.77;75.06;99024.31;5029461;28;20072;-82
2022/05/27 07:00:07;;;;;;;3.85;2.40;;;;;;;15.73;75.03;99010.59;5030416;28;20033;-82
2022/05/27 07:02:32;;;;;;;5.38;2.33;;;;;;;15.76;75.43;99014.63;5015271;28;20413;-81
2022/05/27 07:04:58;;;;;;;5.30;2.65;;;;;;;15.81;74.70;99017.31;5014619;28;20030;-81
2022/05/27 07:07:27;;;;;;;3.38;3.00;;;;;;;15.79;75.38;99015.97;5032295;28;20046;-80
2022/05/27 07:09:52;;;;;;;2.22;2.03;;;;;;;15.84;74.89;99029.38;5015991;28;20048;-81
2022/05/27 07:12:17;;;;;;;2.47;2.22;;;;;;;15.81;75.13;99021.88;5032213;28;20079;-80
2022/05/27 07:14:43;;;;;;;5.85;2.35;;;;;;;15.81;75.11;99024.56;5030074;28;20021;-80
2022/05/27 07:17:08;;;;;;;5.95;2.20;;;;;;;15.76;75.69;99022.72;5012783;28;20030;-81
2022/05/27 07:19:34;;;;;;;3.67;2.28;;;;;;;15.72;75.82;99021.66;5014724;28;20127;-82
2022/05/27 07:22:00;;;;;;;6.78;2.95;;;;;;;15.69;76.35;99008.75;5029203;28;20497;-87
2022/05/27 07:24:26;;;;;;;4.25;2.97;;;;;;;15.67;75.86;99000.97;5025894;28;20033;-82
2022/05/27 07:26:51;;;;;;;5.68;2.58;;;;;;;15.78;76.25;99017.84;5031807;28;20453;-83
2022/05/27 07:29:17;;;;;;;5.78;2.83;;;;;;;15.77;76.41;99013.53;5030472;28;20030;-80
2022/05/27 07:31:44;;;;;;;5.15;2.60;;;;;;;15.80;76.30;99017.56;5026771;28;20382;-80
2022/05/27 07:34:10;;;;;;;5.63;2.97;;;;;;;15.82;76.39;99010.81;5024361;28;20017;-80
2022/05/27 07:36:35;;;;;;;6.13;3.53;;;;;;;15.89;76.52;99002.44;5025014;28;20057;-80
2022/05/27 07:39:01;;;;;;;6.45;3.13;;;;;;;16.03;75.85;99006.91;5035303;28;20036;-79
2022/05/27 07:41:27;;;;;;;6.25;3.42;;;;;;;16.14;75.14;99004.97;5028634;28;20033;-75
2022/05/27 07:43:53;;;;;;;4.57;2.83;;;;;;;16.07;74.38;99013.38;5029917;28;20033;-75
2022/05/27 07:46:21;;;;;;;5.35;3.10;;;;;;;16.01;74.34;99024.47;5026334;28;20033;-74
2022/05/27 07:48:46;;;;;;;4.25;2.90;;;;;;;15.87;74.93;99026.97;5026587;28;20038;-74
2022/05/27 07:51:12;;;;;;;5.15;3.17;;;;;;;15.79;75.19;99011.41;5028177;28;20478;-75
2022/05/27 07:53:38;;;;;;;18.27;4.80;;;;;;;15.81;75.73;99011.13;5031191;28;20115;-75
2022/05/27 07:56:05;;;;;;;58.45;7.13;;;;;;;15.98;74.79;99014.25;5024565;28;20033;-75
2022/05/27 07:58:31;;;;;;;15.60;3.78;;;;;;;15.94;74.89;99008.63;5024480;28;20045;-74
2022/05/27 08:00:56;;;;;;;6.70;3.33;;;;;;;16.15;74.52;99015.47;5030605;28;20075;-74
2022/05/27 08:03:21;;;;;;;9.88;4.10;;;;;;;16.21;74.55;99006.25;5030216;28;20556;-74
2022/05/27 08:05:47;;;;;;;6.70;3.20;;;;;;;16.42;73.55;98996.13;5029314;28;20045;-74
2022/05/27 08:08:13;;;;;;;10.07;3.20;;;;;;;16.45;74.36;98996.38;5027709;28;20068;-73
2022/05/27 08:10:38;;;;;;;8.52;3.58;;;;;;;16.55;73.24;99002.78;5024083;28;20060;-73
2022/05/27 08:13:04;;;;;;;6.43;3.30;;;;;;;16.66;73.76;99005.13;5026541;28;20049;-73
2022/05/27 08:15:33;;;;;;;8.95;3.17;;;;;;;16.83;73.49;99004.66;5027016;28;20344;-75
2022/05/27 08:18:02;;;;;;;11.85;3.45;;;;;;;16.86;73.05;98998.72;5019864;28;20053;-81
2022/05/27 08:20:30;;;;;;;19.40;4.30;;;;;;;16.93;71.46;98999.97;5041162;28;20064;-80
2022/05/27 08:23:05;;;;;;;15.05;3.67;;;;;;;16.96;71.89;99001.31;5041685;28;20025;-83
2022/05/27 08:25:31;;;;;;;20.00;3.83;;;;;;;17.10;71.87;98997.63;5041633;28;20041;-79
2022/05/27 08:28:06;;;;;;;12.90;3.28;;;;;;;17.24;70.55;99011.22;5038927;28;20711;-81
2022/05/27 08:30:34;;;;;;;31.40;5.37;;;;;;;17.22;69.93;99003.44;5032205;28;20038;-82
2022/05/27 08:33:00;;;;;;;14.65;3.65;;;;;;;17.25;69.75;99016.34;5038065;28;20045;-81
2022/05/27 08:38:33;;;;;;;40.25;5.00;;;;;;;17.16;68.74;99022.66;5018865;28;20116;-80
2022/05/27 08:41:17;;;;;;;8.35;2.85;;;;;;;17.13;69.34;99026.72;5032539;28;20053;-82
2022/05/27 08:43:53;;;;;;;7.90;3.40;;;;;;;17.09;69.17;99019.50;5030016;28;20022;-81
2022/05/27 08:46:54;;;;;;;13.10;3.50;;;;;;;17.06;68.73;99030.84;5029862;28;20056;-81
2022/05/27 08:49:29;;;;;;;25.17;5.55;;;;;;;16.14;70.79;99021.91;5027929;28;20052;-78
2022/05/27 08:52:03;;;;;;;20.55;4.60;;;;;;;15.68;72.18;99021.41;5027059;28;20453;-80
2022/05/27 08:54:44;;;;;;;7.25;3.38;;;;;;;15.68;73.71;99024.09;5031732;28;20138;-81
2022/05/27 09:00:02;;;;;;;13.45;3.60;;;;;;;15.96;73.00;99019.09;5030625;28;20151;-80
2022/05/27 09:03:00;;;;;;;9.05;3.63;;;;;;;15.79;72.77;99024.84;5030141;28;20108;-80
2022/05/27 09:05:33;;;;;;;9.20;3.33;;;;;;;15.73;72.14;99034.81;5020396;28;20683;-80
2022/05/27 09:08:06;;;;;;;6.15;3.35;;;;;;;15.63;72.19;99026.00;5034780;28;20548;-79
2022/05/27 09:10:47;;;;;;;4.63;2.67;;;;;;;15.34;71.69;99020.44;5032333;28;20044;-79
2022/05/27 09:13:21;;;;;;;6.47;3.22;;;;;;;15.49;72.03;99030.38;5032912;28;20029;-80
2022/05/27 09:16:09;;;;;;;6.88;3.42;;;;;;;15.38;72.18;99031.44;5031874;28;20056;-80
2022/05/27 09:18:45;;;;;;;5.53;3.00;;;;;;;15.38;71.39;99026.06;5029764;28;20192;-82
2022/05/27 09:21:26;;;;;;;10.18;3.58;;;;;;;15.25;71.00;99016.72;5029530;28;20026;-82
2022/05/27 09:24:02;;;;;;;7.63;3.05;;;;;;;15.52;70.89;99016.38;5035722;28;20037;-82
2022/05/27 09:26:39;;;;;;;6.10;3.53;;;;;;;15.53;72.88;99007.22;5032957;28;20490;-82
2022/05/27 09:29:26;;;;;;;7.57;3.50;;;;;;;15.49;70.51;99017.72;5045803;28;20536;-82
2022/05/27 09:32:06;;;;;;;6.05;3.20;;;;;;;15.64;70.29;99019.53;5031527;28;20021;-83
2022/05/27 09:34:36;;;;;;;7.47;3.35;;;;;;;15.70;69.50;99005.00;5034481;28;20029;-84
2022/05/27 09:37:07;;;;;;;4.70;2.85;;;;;;;15.70;68.88;99015.75;5034888;28;20032;-82
2022/05/27 09:39:32;;;;;;;27.55;5.10;;;;;;;15.67;67.27;99014.41;5030858;28;20087;-81
2022/05/27 09:42:21;;;;;;;6.50;3.30;;;;;;;15.63;68.76;99017.94;5026065;28;20048;-81
2022/05/27 09:44:54;;;;;;;5.55;3.17;;;;;;;15.63;70.92;99012.56;5030430;28;20378;-81
2022/05/27 09:47:33;;;;;;;5.40;3.08;;;;;;;15.82;68.99;99018.91;5032957;28;20045;-80
2022/05/27 09:50:00;;;;;;;4.78;2.95;;;;;;;15.97;67.97;99013.41;5029929;28;20751;-81
2022/05/27 09:52:30;;;;;;;7.32;3.55;;;;;;;15.99;66.05;99000.47;5029149;28;20061;-83
2022/05/27 09:55:12;;;;;;;1999.90;289.63;;;;;;;16.10;66.31;99004.72;5026969;28;20026;-79
2022/05/27 09:57:37;;;;;;;1424.53;178.68;;;;;;;16.23;66.35;98993.31;5030755;28;20546;-80
2022/05/27 10:00:49;;;;;;;1999.90;341.70;;;;;;;16.26;64.68;98998.16;5031581;28;20072;-81
2022/05/27 10:03:53;;;;;;;225.27;25.17;;;;;;;16.53;64.85;99013.84;5048015;28;20033;-78
2022/05/27 10:06:25;;;;;;;71.47;8.20;;;;;;;16.43;62.57;99011.19;5032550;28;20021;-80
2022/05/27 10:08:53;;;;;;;67.95;8.63;;;;;;;16.61;64.60;98996.25;5034783;28;20091;-81
2022/05/27 10:11:29;;;;;;;31.30;6.78;;;;;;;16.29;63.87;99005.66;5040765;28;20043;-82
2022/05/27 10:14:06;;;;;;;17.83;4.28;;;;;;;16.76;63.95;99004.19;5036563;28;20033;-81
2022/05/27 10:16:34;;;;;;;6.57;3.05;;;;;;;16.81;63.57;99010.34;5038182;28;20029;-81
2022/05/27 10:19:21;;;;;;;10.82;2.78;;;;;;;16.30;62.49;99007.28;5044247;28;20025;-81
2022/05/27 10:22:27;;;;;;;9.27;3.47;;;;;;;16.36;62.83;99006.13;5029686;28;20028;-82
2022/05/27 10:24:59;;;;;;;5.85;2.90;;;;;;;16.63;62.99;98992.19;5026144;28;20402;-77
2022/05/27 10:28:00;;;;;;;9.88;3.70;;;;;;;16.85;62.07;98989.00;5028015;28;20041;-76
2022/05/27 10:30:38;;;;;;;4.22;2.30;;;;;;;16.99;59.67;98984.56;5011474;28;20037;-76
2022/05/27 10:33:13;;;;;;;19.10;3.08;;;;;;;16.93;58.98;98983.78;5024399;28;20053;-78
2022/05/27 10:35:38;;;;;;;10.30;2.78;;;;;;;16.99;59.39;98987.25;5024922;28;20124;-77
2022/05/27 10:38:25;;;;;;;6.60;2.40;;;;;;;17.29;58.81;98973.41;5028394;28;20053;-80
2022/05/27 10:40:57;;;;;;;6.05;2.67;;;;;;;17.85;59.71;98982.41;5027747;28;20025;-82
2022/05/27 10:43:44;;;;;;;10.52;3.22;;;;;;;17.52;57.27;98966.38;5029441;28;20036;-81
2022/05/27 10:46:19;;;;;;;9.10;3.42;;;;;;;17.05;58.49;98964.53;5028492;28;20436;-78
2022/05/27 10:49:06;;;;;;;5.32;2.10;;;;;;;16.94;56.86;98977.31;5017609;28;22216;-81
2022/05/27 10:51:44;;;;;;;7.38;2.42;;;;;;;16.95;59.21;98970.06;5025845;28;20029;-83
2022/05/27 11:04:45;;;;;;;69.43;9.23;;;;;;;16.54;56.83;99001.97;5030472;28;20512;-82
2022/05/27 11:16:52;;;;;;;5.93;2.63;;;;;;;17.59;55.61;98966.84;5033736;28;20342;-80
2022/05/27 11:19:48;;;;;;;14.48;3.03;;;;;;;17.47;56.87;98961.84;5034084;28;20040;-83
2022/05/27 11:22:37;;;;;;;111.40;14.50;;;;;;;17.90;56.02;98962.63;5030889;28;20026;-84
2022/05/27 11:25:35;;;;;;;16.80;3.38;;;;;;;17.60;55.63;98966.56;5028643;28;20070;-84
2022/05/27 11:28:22;;;;;;;34.55;4.97;;;;;;;17.76;55.35;98953.63;5031306;28;20079;-82
2022/05/27 11:31:25;;;;;;;25.42;4.25;;;;;;;17.80;56.98;98958.16;5031769;28;20040;-86
2022/05/27 11:40:51;;;;;;;8.07;3.15;;;;;;;17.10;56.51;98951.00;5038828;28;20063;-83
2022/05/27 11:43:45;;;;;;;10.75;2.42;;;;;;;16.90;57.29;98935.84;5035089;28;20536;-83
2022/05/27 11:46:11;;;;;;;8.93;3.15;;;;;;;16.96;57.07;98945.47;5033300;28;20036;-82
2022/05/27 11:48:58;;;;;;;243.10;24.90;;;;;;;17.27;57.14;98962.09;5034001;28;20476;-82
2022/05/27 11:51:35;;;;;;;11.32;4.03;;;;;;;17.11;56.41;98960.69;5035706;28;20029;-81
2022/05/27 11:54:26;;;;;;;12.20;3.40;;;;;;;17.01;57.71;98958.91;5037449;28;20448;-82
2022/05/27 11:57:20;;;;;;;10.88;2.78;;;;;;;17.01;57.81;98955.41;5043265;28;20059;-81
2022/05/27 12:00:02;;;;;;;15.48;3.50;;;;;;;16.99;57.79;98954.91;5040575;28;20152;-83
2022/05/27 12:02:46;;;;;;;5.63;2.65;;;;;;;17.12;58.17;98956.91;5041859;28;20028;-83
2022/05/27 12:05:48;;;;;;;8.30;3.00;;;;;;;16.91;57.74;98963.59;5043075;28;20028;-83
2022/05/27 12:08:43;;;;;;;14.48;3.88;;;;;;;17.06;57.62;98958.03;5033504;28;20037;-83
2022/05/27 12:11:19;;;;;;;8.13;2.13;;;;;;;16.88;57.56;98951.50;5037553;28;20025;-83
2022/05/27 12:13:52;;;;;;;5.13;2.42;;;;;;;16.69;56.57;98958.72;5036216;28;20041;-81
2022/05/27 12:16:27;;;;;;;7.88;2.47;;;;;;;17.47;56.40;98963.75;5032796;28;20379;-83
2022/05/27 12:22:35;;;;;;;5.10;2.22;;;;;;;17.75;55.17;98952.84;5032329;28;20465;-86
2022/05/27 12:25:08;;;;;;;6.65;2.88;;;;;;;17.63;54.59;98944.38;5030320;28;20479;-84
2022/05/27 12:27:35;;;;;;;7.47;2.70;;;;;;;17.29;55.02;98942.94;5030053;28;20025;-83
2022/05/27 12:30:01;;;;;;;10.00;3.72;;;;;;;17.62;54.56;98945.47;5052068;28;20109;-82
2022/05/27 12:32:28;;;;;;;4.97;3.00;;;;;;;17.51;54.05;98957.50;5039421;28;20044;-83
2022/05/27 12:35:20;;;;;;;13.02;3.13;;;;;;;17.37;54.17;98971.94;5035814;28;21450;-84
2022/05/27 12:37:51;;;;;;;7.20;2.63;;;;;;;17.20;53.93;98961.66;5032982;28;20040;-82
2022/05/27 12:40:26;;;;;;;11.13;3.00;;;;;;;17.15;53.40;98959.81;5032751;28;20041;-82
2022/05/27 12:42:55;;;;;;;8.25;3.17;;;;;;;17.60;51.58;98960.34;5030956;28;20041;-83
2022/05/27 12:45:47;;;;;;;8.10;2.60;;;;;;;17.24;52.29;98970.78;5034042;28;20021;-82
2022/05/27 12:48:40;;;;;;;7.97;2.50;;;;;;;17.87;51.34;98974.00;5023153;28;20037;-80
2022/05/27 12:55:42;;;;;;;9.48;2.35;;;;;;;19.11;50.69;98958.59;5031820;28;20076;-84
2022/05/27 13:02:36;;;;;;;8.18;2.72;;;;;;;19.42;49.69;98953.41;4922290;29;20070;-85
2022/05/27 13:06:05;;;;;;;16.13;3.25;;;;;;;19.52;49.56;98957.81;4886671;29;20046;-85
2022/05/27 13:13:10;;;;;;;8.27;2.38;;;;;;;18.88;49.23;98931.75;4897378;29;20067;-82
2022/05/27 13:15:53;;;;;;;10.55;2.60;;;;;;;18.56;50.17;98921.81;4888080;29;20120;-80
2022/05/27 13:18:34;;;;;;;8.35;4.25;;;;;;;18.75;53.16;98960.41;4896953;29;20048;-82
2022/05/27 13:21:11;;;;;;;7.07;2.63;;;;;;;19.07;51.41;98935.97;4903911;29;20050;-83
2022/05/27 13:24:07;;;;;;;7.63;2.63;;;;;;;18.60;52.53;98912.81;5037770;28;20041;-83
2022/05/27 13:27:00;;;;;;;10.30;2.90;;;;;;;18.64;52.75;98932.75;5026859;28;20025;-83
2022/05/27 13:29:28;;;;;;;4.30;2.63;;;;;;;19.14;48.22;98940.97;5032055;28;20100;-79
2022/05/27 13:32:09;;;;;;;6.78;2.58;;;;;;;19.70;49.86;98940.63;5031022;28;20033;-82
2022/05/27 13:34:41;;;;;;;6.53;3.03;;;;;;;20.12;49.45;98945.56;5043580;28;20486;-82
2022/05/27 13:37:15;;;;;;;10.50;2.97;;;;;;;20.28;48.04;98943.31;5017622;28;20033;-82